createdAt,value
2017-05-18T00:00:36.631Z,0
2017-05-18T00:01:17.148Z,0
2017-05-18T00:01:57.676Z,0
2017-05-18T00:02:38.211Z,0
2017-05-18T00:03:18.739Z,0
2017-05-18T00:03:59.310Z,0
2017-05-18T00:04:39.799Z,0
2017-05-18T00:05:20.332Z,0
2017-05-18T00:06:00.857Z,0
2017-05-18T00:06:41.391Z,0
2017-05-18T00:07:21.955Z,0
2017-05-18T00:08:02.478Z,0
2017-05-18T00:08:42.994Z,0
2017-05-18T00:09:23.512Z,0
2017-05-18T00:10:04.032Z,0
2017-05-18T00:10:44.547Z,0
2017-05-18T00:11:25.074Z,0
2017-05-18T00:12:05.604Z,0
2017-05-18T00:12:46.131Z,0
2017-05-18T00:13:26.651Z,0
2017-05-18T00:14:07.188Z,0
2017-05-18T00:14:47.714Z,0
2017-05-18T00:15:28.232Z,0
2017-05-18T00:16:08.751Z,0
2017-05-18T00:16:49.270Z,0
2017-05-18T00:17:29.816Z,0
2017-05-18T00:18:10.352Z,0
2017-05-18T00:18:50.865Z,0
2017-05-18T00:19:31.399Z,0
2017-05-18T00:20:11.913Z,0
2017-05-18T00:20:52.429Z,0
2017-05-18T00:21:32.978Z,0
2017-05-18T00:22:13.512Z,0
2017-05-18T00:22:54.038Z,0
2017-05-18T00:23:34.575Z,0
2017-05-18T00:24:15.099Z,0
2017-05-18T00:24:55.615Z,0
2017-05-18T00:25:36.142Z,0
2017-05-18T00:26:16.672Z,0
2017-05-18T00:26:57.196Z,0
2017-05-18T00:27:37.719Z,0
2017-05-18T00:28:18.238Z,0
2017-05-18T00:28:58.762Z,0
2017-05-18T00:29:39.282Z,0
2017-05-18T00:30:19.806Z,0
2017-05-18T00:31:00.324Z,0
2017-05-18T00:31:40.845Z,0
2017-05-18T00:32:21.374Z,0
2017-05-18T00:33:01.904Z,0
2017-05-18T00:33:42.431Z,0
2017-05-18T00:34:22.964Z,0
2017-05-18T00:35:03.488Z,0
2017-05-18T00:35:44.007Z,0
2017-05-18T00:36:24.527Z,0
2017-05-18T00:37:05.109Z,0
2017-05-18T00:37:45.585Z,0
2017-05-18T00:38:26.103Z,0
2017-05-18T00:39:06.626Z,0
2017-05-18T00:39:47.147Z,0
2017-05-18T00:40:27.675Z,0
2017-05-18T00:41:08.195Z,0
2017-05-18T00:41:48.726Z,0
2017-05-18T00:42:29.252Z,0
2017-05-18T00:43:09.783Z,0
2017-05-18T00:43:50.319Z,0
2017-05-18T00:44:30.842Z,0
2017-05-18T00:45:11.366Z,0
2017-05-18T00:45:51.881Z,0
2017-05-18T00:46:32.417Z,0
2017-05-18T00:47:12.957Z,0
2017-05-18T00:47:53.479Z,0
2017-05-18T00:48:34.006Z,0
2017-05-18T00:49:14.519Z,0
2017-05-18T00:49:55.039Z,0
2017-05-18T00:50:35.557Z,0
2017-05-18T00:51:16.083Z,0
2017-05-18T00:51:56.606Z,0
2017-05-18T00:52:37.126Z,0
2017-05-18T00:53:17.640Z,0
2017-05-18T00:53:58.178Z,0
2017-05-18T00:54:38.700Z,0
2017-05-18T00:55:19.236Z,0
2017-05-18T00:55:59.754Z,0
2017-05-18T00:56:40.278Z,0
2017-05-18T00:57:20.794Z,0
2017-05-18T00:58:01.330Z,0
2017-05-18T00:58:41.852Z,0
2017-05-18T00:59:22.373Z,0
2017-05-18T01:00:02.891Z,0
2017-05-18T01:00:43.420Z,0
2017-05-18T01:01:24.000Z,0
2017-05-18T01:02:04.476Z,0
2017-05-18T01:02:44.988Z,0
2017-05-18T01:03:25.510Z,0
2017-05-18T01:04:06.040Z,0
2017-05-18T01:04:46.570Z,0
2017-05-18T01:05:27.089Z,0
2017-05-18T01:06:07.604Z,0
2017-05-18T01:06:48.130Z,0
2017-05-18T01:07:28.646Z,0
2017-05-18T01:08:09.170Z,0
2017-05-18T01:08:49.698Z,0
2017-05-18T01:09:30.226Z,0
2017-05-18T01:10:10.752Z,0
2017-05-18T01:10:51.278Z,0
2017-05-18T01:11:31.805Z,0
2017-05-18T01:12:12.376Z,0
2017-05-18T01:12:52.858Z,0
2017-05-18T01:13:33.385Z,0
2017-05-18T01:14:13.904Z,0
2017-05-18T01:14:54.425Z,0
2017-05-18T01:15:34.954Z,0
2017-05-18T01:16:15.491Z,0
2017-05-18T01:16:56.023Z,0
2017-05-18T01:17:36.541Z,0
2017-05-18T01:18:17.064Z,0
2017-05-18T01:18:57.583Z,0
2017-05-18T01:19:38.097Z,0
2017-05-18T01:20:18.640Z,0
2017-05-18T01:20:59.161Z,0
2017-05-18T01:21:39.684Z,0
2017-05-18T01:22:20.215Z,0
2017-05-18T01:23:00.734Z,0
2017-05-18T01:23:41.258Z,0
2017-05-18T01:24:21.793Z,0
2017-05-18T01:25:02.308Z,0
2017-05-18T01:25:42.826Z,0
2017-05-18T01:26:23.345Z,0
2017-05-18T01:27:03.867Z,0
2017-05-18T01:27:44.394Z,0
2017-05-18T01:28:24.929Z,0
2017-05-18T01:29:05.465Z,0
2017-05-18T01:29:45.992Z,0
2017-05-18T01:30:26.516Z,0
2017-05-18T01:31:07.046Z,0
2017-05-18T01:31:47.566Z,0
2017-05-18T01:32:28.089Z,0
2017-05-18T01:33:08.609Z,0
2017-05-18T01:33:49.152Z,0
2017-05-18T01:34:29.674Z,0
2017-05-18T01:35:10.185Z,0
2017-05-18T01:35:50.700Z,0
2017-05-18T01:36:31.231Z,0
2017-05-18T01:37:11.755Z,0
2017-05-18T01:37:52.282Z,0
2017-05-18T01:38:32.804Z,0
2017-05-18T01:39:13.329Z,0
2017-05-18T01:39:53.851Z,0
2017-05-18T01:40:34.374Z,0
2017-05-18T01:41:14.910Z,0
2017-05-18T01:41:55.445Z,0
2017-05-18T01:42:35.966Z,0
2017-05-18T01:43:16.485Z,0
2017-05-18T01:43:57.011Z,0
2017-05-18T01:44:37.539Z,0
2017-05-18T01:45:18.063Z,0
2017-05-18T01:45:58.586Z,0
2017-05-18T01:46:39.170Z,0
2017-05-18T01:47:19.667Z,0
2017-05-18T01:48:00.186Z,0
2017-05-18T01:48:40.701Z,0
2017-05-18T01:51:14.394Z,0
2017-05-18T01:51:54.931Z,0
2017-05-18T01:52:35.443Z,0
2017-05-18T01:53:15.971Z,0
2017-05-18T01:53:56.490Z,0
2017-05-18T01:54:37.010Z,0
2017-05-18T01:55:17.526Z,0
2017-05-18T01:55:58.059Z,0
2017-05-18T01:56:38.585Z,0
2017-05-18T01:57:19.104Z,0
2017-05-18T01:57:59.616Z,0
2017-05-18T01:58:40.146Z,0
2017-05-18T01:59:20.665Z,0
2017-05-18T02:00:01.182Z,0
2017-05-18T02:00:41.702Z,0
2017-05-18T02:01:22.223Z,0
2017-05-18T02:02:02.740Z,0
2017-05-18T02:02:43.258Z,0
2017-05-18T02:03:23.777Z,0
2017-05-18T02:04:04.295Z,0
2017-05-18T02:04:44.815Z,0
2017-05-18T02:05:25.335Z,0
2017-05-18T02:06:05.904Z,0
2017-05-18T02:06:46.366Z,0
2017-05-18T02:07:26.880Z,0
2017-05-18T02:08:07.395Z,0
2017-05-18T02:08:47.924Z,0
2017-05-18T02:09:28.454Z,0
2017-05-18T02:10:08.965Z,0
2017-05-18T02:10:49.487Z,0
2017-05-18T02:11:30.009Z,0
2017-05-18T02:12:10.522Z,0
2017-05-18T02:12:51.093Z,0
2017-05-18T02:13:31.574Z,0
2017-05-18T02:14:12.170Z,0
2017-05-18T02:14:52.690Z,0
2017-05-18T02:15:33.208Z,0
2017-05-18T02:16:13.740Z,0
2017-05-18T02:16:54.260Z,0
2017-05-18T02:17:34.779Z,0
2017-05-18T02:18:15.303Z,0
2017-05-18T02:18:55.820Z,0
2017-05-18T02:19:36.330Z,0
2017-05-18T02:20:16.852Z,0
2017-05-18T02:20:57.385Z,0
2017-05-18T02:21:37.907Z,0
2017-05-18T02:22:18.427Z,0
2017-05-18T02:22:58.945Z,0
2017-05-18T02:23:39.466Z,0
2017-05-18T02:24:19.984Z,0
2017-05-18T02:25:00.515Z,0
2017-05-18T02:25:41.033Z,0
2017-05-18T02:26:21.547Z,0
2017-05-18T02:27:02.069Z,0
2017-05-18T02:27:42.602Z,0
2017-05-18T02:28:23.117Z,0
2017-05-18T02:29:03.644Z,0
2017-05-18T02:29:44.173Z,0
2017-05-18T02:30:24.706Z,0
2017-05-18T02:31:05.220Z,0
2017-05-18T02:31:45.754Z,0
2017-05-18T02:32:26.273Z,0
2017-05-18T02:33:06.793Z,0
2017-05-18T02:33:47.320Z,0
2017-05-18T02:34:27.852Z,0
2017-05-18T02:35:08.382Z,0
2017-05-18T02:35:48.896Z,0
2017-05-18T02:36:29.408Z,0
2017-05-18T02:37:09.928Z,0
2017-05-18T02:37:50.449Z,0
2017-05-18T02:38:30.966Z,0
2017-05-18T02:39:11.500Z,0
2017-05-18T02:39:52.029Z,0
2017-05-18T02:40:32.552Z,0
2017-05-18T02:41:13.085Z,0
2017-05-18T02:41:53.597Z,0
2017-05-18T02:42:34.115Z,0
2017-05-18T02:43:14.637Z,0
2017-05-18T02:43:55.157Z,0
2017-05-18T02:44:35.668Z,0
2017-05-18T02:45:16.200Z,0
2017-05-18T02:45:56.717Z,0
2017-05-18T02:46:37.230Z,0
2017-05-18T02:47:17.751Z,0
2017-05-18T02:47:58.270Z,0
2017-05-18T02:48:38.798Z,0
2017-05-18T02:49:19.319Z,0
2017-05-18T02:49:59.845Z,0
2017-05-18T02:50:40.360Z,0
2017-05-18T02:51:20.885Z,0
2017-05-18T02:52:01.404Z,0
2017-05-18T02:52:41.924Z,0
2017-05-18T02:53:22.443Z,0
2017-05-18T02:54:02.968Z,0
2017-05-18T02:54:43.493Z,0
2017-05-18T02:55:24.011Z,0
2017-05-18T02:56:04.533Z,0
2017-05-18T02:56:45.053Z,0
2017-05-18T02:57:25.572Z,0
2017-05-18T02:58:06.106Z,0
2017-05-18T02:58:46.627Z,0
2017-05-18T02:59:27.145Z,0
2017-05-18T03:00:07.657Z,0
2017-05-18T03:00:48.184Z,0
2017-05-18T03:01:28.721Z,0
2017-05-18T03:02:09.242Z,0
2017-05-18T03:02:49.758Z,0
2017-05-18T03:03:30.296Z,0
2017-05-18T03:04:10.829Z,0
2017-05-18T03:04:51.343Z,0
2017-05-18T03:05:31.860Z,0
2017-05-18T03:06:12.399Z,0
2017-05-18T03:06:52.929Z,0
2017-05-18T03:07:33.447Z,0
2017-05-18T03:08:13.969Z,0
2017-05-18T03:08:54.498Z,0
2017-05-18T03:09:35.015Z,0
2017-05-18T03:10:15.537Z,0
2017-05-18T03:10:56.066Z,0
2017-05-18T03:11:36.591Z,0
2017-05-18T03:12:17.133Z,0
2017-05-18T03:12:57.654Z,0
2017-05-18T03:13:38.168Z,0
2017-05-18T03:14:18.707Z,0
2017-05-18T03:14:59.242Z,0
2017-05-18T03:15:39.823Z,0
2017-05-18T03:16:20.299Z,0
2017-05-18T03:17:00.824Z,0
2017-05-18T03:17:41.348Z,0
2017-05-18T03:18:21.868Z,0
2017-05-18T03:19:02.393Z,0
2017-05-18T03:19:42.934Z,0
2017-05-18T03:20:23.452Z,0
2017-05-18T03:21:03.977Z,0
2017-05-18T03:21:44.496Z,0
2017-05-18T03:22:25.018Z,0
2017-05-18T03:23:05.540Z,0
2017-05-18T03:23:46.064Z,0
2017-05-18T03:24:26.577Z,0
2017-05-18T03:25:07.107Z,0
2017-05-18T03:25:47.624Z,0
2017-05-18T03:26:28.146Z,0
2017-05-18T03:27:08.661Z,0
2017-05-18T03:27:49.182Z,0
2017-05-18T03:28:29.710Z,0
2017-05-18T03:29:10.231Z,0
2017-05-18T03:29:50.752Z,0
2017-05-18T03:30:31.284Z,0
2017-05-18T03:31:11.800Z,0
2017-05-18T03:31:52.317Z,0
2017-05-18T03:32:32.837Z,0
2017-05-18T03:33:13.364Z,0
2017-05-18T03:33:53.905Z,0
2017-05-18T03:34:34.397Z,0
2017-05-18T03:35:14.919Z,0
2017-05-18T03:35:55.438Z,0
2017-05-18T03:36:35.962Z,0
2017-05-18T03:37:16.473Z,0
2017-05-18T03:37:56.997Z,0
2017-05-18T03:38:37.518Z,0
2017-05-18T03:39:18.046Z,0
2017-05-18T03:39:58.612Z,0
2017-05-18T03:40:39.081Z,0
2017-05-18T03:41:19.590Z,0
2017-05-18T03:42:00.102Z,0
2017-05-18T03:42:40.629Z,0
2017-05-18T03:43:21.142Z,0
2017-05-18T03:44:01.681Z,0
2017-05-18T03:44:42.199Z,5
2017-05-18T03:45:22.725Z,5
2017-05-18T03:46:03.241Z,5
2017-05-18T03:46:43.748Z,5
2017-05-18T03:47:24.262Z,5
2017-05-18T03:48:04.790Z,5
2017-05-18T03:48:45.315Z,5
2017-05-18T03:49:25.835Z,5
2017-05-18T03:50:06.372Z,5
2017-05-18T03:50:46.899Z,5
2017-05-18T03:51:27.420Z,5
2017-05-18T03:52:07.936Z,5
2017-05-18T03:52:48.451Z,5
2017-05-18T03:53:28.988Z,5
2017-05-18T03:54:09.509Z,5
2017-05-18T03:54:50.025Z,10
2017-05-18T03:55:30.551Z,10
2017-05-18T03:56:11.066Z,10
2017-05-18T03:56:51.586Z,10
2017-05-18T03:57:32.114Z,10
2017-05-18T03:58:12.631Z,10
2017-05-18T03:58:53.149Z,10
2017-05-18T03:59:33.666Z,10
2017-05-18T04:00:14.183Z,10
2017-05-18T04:00:54.704Z,10
2017-05-18T04:01:35.224Z,10
2017-05-18T04:02:15.745Z,10
2017-05-18T04:02:56.266Z,10
2017-05-18T04:03:36.787Z,10
2017-05-18T04:04:17.317Z,10
2017-05-18T04:04:57.844Z,10
2017-05-18T04:05:38.362Z,10
2017-05-18T04:06:18.880Z,10
2017-05-18T04:06:59.398Z,15
2017-05-18T04:07:39.913Z,15
2017-05-18T04:08:20.435Z,15
2017-05-18T04:09:00.947Z,15
2017-05-18T04:09:41.470Z,15
2017-05-18T04:10:21.984Z,15
2017-05-18T04:11:02.515Z,15
2017-05-18T04:11:43.199Z,15
2017-05-18T04:12:23.958Z,15
2017-05-18T04:13:04.447Z,15
2017-05-18T04:13:45.002Z,20
2017-05-18T04:14:25.523Z,20
2017-05-18T04:15:06.038Z,20
2017-05-18T04:15:46.558Z,20
2017-05-18T04:16:27.195Z,20
2017-05-18T04:17:07.717Z,20
2017-05-18T04:17:48.231Z,20
2017-05-18T04:18:28.768Z,20
2017-05-18T04:19:09.285Z,25
2017-05-18T04:19:49.817Z,25
2017-05-18T04:20:30.335Z,25
2017-05-18T04:21:10.862Z,25
2017-05-18T04:21:51.383Z,25
2017-05-18T04:22:31.909Z,25
2017-05-18T04:23:12.427Z,25
2017-05-18T04:23:52.962Z,30
2017-05-18T04:24:33.492Z,30
2017-05-18T04:25:14.014Z,35
2017-05-18T04:25:54.537Z,35
2017-05-18T04:26:35.057Z,35
2017-05-18T04:27:15.574Z,35
2017-05-18T04:27:56.106Z,45
2017-05-18T04:28:36.619Z,45
2017-05-18T04:29:17.144Z,45
2017-05-18T04:29:57.673Z,40
2017-05-18T04:30:38.196Z,40
2017-05-18T04:31:18.724Z,40
2017-05-18T04:31:59.256Z,40
2017-05-18T04:32:39.778Z,40
2017-05-18T04:33:20.301Z,40
2017-05-18T04:34:00.822Z,40
2017-05-18T04:34:41.357Z,40
2017-05-18T04:35:21.873Z,40
2017-05-18T04:36:02.394Z,40
2017-05-18T04:36:42.913Z,40
2017-05-18T04:37:23.438Z,40
2017-05-18T04:38:03.962Z,40
2017-05-18T04:38:44.489Z,40
2017-05-18T04:39:25.017Z,40
2017-05-18T04:40:05.539Z,40
2017-05-18T04:40:46.344Z,40
2017-05-18T04:41:27.156Z,40
2017-05-18T04:42:07.682Z,40
2017-05-18T04:42:48.218Z,40
2017-05-18T04:43:28.734Z,45
2017-05-18T04:44:09.261Z,45
2017-05-18T04:44:49.804Z,45
2017-05-18T04:45:30.327Z,45
2017-05-18T04:46:10.866Z,45
2017-05-18T04:46:51.403Z,50
2017-05-18T04:47:31.925Z,50
2017-05-18T04:48:12.462Z,55
2017-05-18T04:48:53.221Z,50
2017-05-18T04:49:33.754Z,55
2017-05-18T04:50:14.267Z,60
2017-05-18T04:50:54.790Z,65
2017-05-18T04:51:35.303Z,50
2017-05-18T04:52:15.828Z,50
2017-05-18T04:52:56.357Z,50
2017-05-18T04:53:36.903Z,50
2017-05-18T04:54:17.392Z,50
2017-05-18T04:54:57.920Z,50
2017-05-18T04:55:38.444Z,50
2017-05-18T04:56:18.978Z,50
2017-05-18T04:56:59.507Z,50
2017-05-18T04:57:40.035Z,50
2017-05-18T04:58:20.560Z,50
2017-05-18T04:59:01.093Z,50
2017-05-18T04:59:41.617Z,55
2017-05-18T05:00:22.144Z,65
2017-05-18T05:01:02.664Z,85
2017-05-18T05:01:43.192Z,70
2017-05-18T05:02:23.712Z,135
2017-05-18T05:03:04.233Z,95
2017-05-18T05:03:44.757Z,70
2017-05-18T05:04:25.295Z,60
2017-05-18T05:05:05.824Z,60
2017-05-18T05:05:46.354Z,60
2017-05-18T05:06:26.904Z,65
2017-05-18T05:07:07.422Z,65
2017-05-18T05:07:48.767Z,70
2017-05-18T05:08:29.269Z,70
2017-05-18T05:09:09.463Z,65
2017-05-18T05:09:49.981Z,60
2017-05-18T05:10:30.526Z,55
2017-05-18T05:11:11.043Z,50
2017-05-18T05:11:51.570Z,50
2017-05-18T05:12:32.101Z,50
2017-05-18T05:13:13.028Z,45
2017-05-18T05:13:53.435Z,45
2017-05-18T05:14:33.949Z,45
2017-05-18T05:15:14.479Z,45
2017-05-18T05:15:55.000Z,40
2017-05-18T05:16:35.528Z,40
2017-05-18T05:17:16.047Z,40
2017-05-18T05:17:56.571Z,35
2017-05-18T05:18:37.778Z,35
2017-05-18T05:19:17.599Z,35
2017-05-18T05:19:58.123Z,35
2017-05-18T05:20:38.658Z,35
2017-05-18T05:21:19.180Z,35
2017-05-18T05:21:59.723Z,35
2017-05-18T05:22:40.243Z,35
2017-05-18T05:23:20.754Z,35
2017-05-18T05:24:01.278Z,35
2017-05-18T05:24:41.819Z,35
2017-05-18T05:25:22.343Z,30
2017-05-18T05:26:02.866Z,35
2017-05-18T05:26:43.398Z,35
2017-05-18T05:27:23.918Z,35
2017-05-18T05:28:04.430Z,35
2017-05-18T05:28:44.961Z,35
2017-05-18T05:29:25.502Z,35
2017-05-18T05:30:06.030Z,35
2017-05-18T05:30:46.625Z,35
2017-05-18T05:31:27.144Z,35
2017-05-18T05:32:07.665Z,35
2017-05-18T05:32:48.185Z,35
2017-05-18T05:33:28.728Z,35
2017-05-18T05:34:09.251Z,35
2017-05-18T05:34:49.779Z,35
2017-05-18T05:35:30.302Z,35
2017-05-18T05:36:10.841Z,35
2017-05-18T05:36:51.376Z,35
2017-05-18T05:37:31.901Z,35
2017-05-18T05:38:12.420Z,35
2017-05-18T05:38:52.934Z,35
2017-05-18T05:39:33.475Z,35
2017-05-18T05:40:13.974Z,40
2017-05-18T05:40:54.540Z,40
2017-05-18T05:41:35.057Z,40
2017-05-18T05:42:15.582Z,40
2017-05-18T05:42:56.329Z,40
2017-05-18T05:43:37.488Z,40
2017-05-18T05:44:18.025Z,35
2017-05-18T05:44:58.560Z,35
2017-05-18T05:45:39.089Z,35
2017-05-18T05:46:19.627Z,35
2017-05-18T05:47:00.160Z,35
2017-05-18T05:47:40.696Z,35
2017-05-18T05:48:21.222Z,40
2017-05-18T05:49:01.731Z,40
2017-05-18T05:49:42.234Z,40
2017-05-18T05:50:22.758Z,40
2017-05-18T05:51:03.286Z,45
2017-05-18T05:51:43.807Z,45
2017-05-18T05:52:24.331Z,45
2017-05-18T05:53:04.864Z,45
2017-05-18T05:53:45.391Z,45
2017-05-18T05:54:25.912Z,45
2017-05-18T05:55:06.431Z,45
2017-05-18T05:55:46.949Z,45
2017-05-18T05:56:27.475Z,45
2017-05-18T05:57:07.983Z,45
2017-05-18T05:57:48.506Z,45
2017-05-18T05:58:28.992Z,45
2017-05-18T05:59:09.514Z,45
2017-05-18T05:59:50.037Z,45
2017-05-18T06:00:30.552Z,45
2017-05-18T06:01:11.068Z,40
2017-05-18T06:01:51.609Z,40
2017-05-18T06:02:32.124Z,45
2017-05-18T06:03:12.663Z,45
2017-05-18T06:03:53.184Z,45
2017-05-18T06:06:35.971Z,45
2017-05-18T06:07:16.486Z,45
2017-05-18T06:07:56.990Z,45
2017-05-18T06:08:37.508Z,45
2017-05-18T06:09:18.041Z,50
2017-05-18T06:09:58.569Z,50
2017-05-18T06:10:39.099Z,50
2017-05-18T06:11:19.635Z,50
2017-05-18T06:12:00.186Z,50
2017-05-18T06:12:40.702Z,55
2017-05-18T06:13:21.219Z,55
2017-05-18T06:14:01.748Z,55
2017-05-18T06:14:42.305Z,60
2017-05-18T06:15:22.823Z,60
2017-05-18T06:16:03.347Z,60
2017-05-18T06:16:43.870Z,60
2017-05-18T06:17:24.387Z,60
2017-05-18T06:18:04.900Z,60
2017-05-18T06:18:45.423Z,60
2017-05-18T06:19:25.963Z,65
2017-05-18T06:20:06.459Z,65
2017-05-18T06:20:46.984Z,65
2017-05-18T06:21:27.554Z,65
2017-05-18T06:22:08.080Z,70
2017-05-18T06:22:48.592Z,70
2017-05-18T06:23:29.105Z,65
2017-05-18T06:24:09.633Z,70
2017-05-18T06:24:51.133Z,65
2017-05-18T06:25:31.649Z,65
2017-05-18T06:26:12.156Z,65
2017-05-18T06:28:25.444Z,65
2017-05-18T06:29:05.968Z,65
2017-05-18T06:29:46.483Z,70
2017-05-18T06:30:27.003Z,65
2017-05-18T06:31:07.531Z,65
2017-05-18T06:31:48.056Z,65
2017-05-18T06:32:28.561Z,65
2017-05-18T06:33:09.076Z,70
2017-05-18T06:33:49.662Z,70
2017-05-18T06:34:30.107Z,70
2017-05-18T06:35:10.630Z,75
2017-05-18T06:35:51.159Z,75
2017-05-18T06:36:31.728Z,80
2017-05-18T06:37:12.191Z,80
2017-05-18T06:37:52.753Z,80
2017-05-18T06:38:33.285Z,80
2017-05-18T06:39:13.774Z,85
2017-05-18T06:39:54.321Z,80
2017-05-18T06:40:34.832Z,85
2017-05-18T06:41:15.292Z,80
2017-05-18T06:41:55.784Z,80
2017-05-18T06:42:36.296Z,80
2017-05-18T06:43:16.805Z,80
2017-05-18T06:43:57.324Z,80
2017-05-18T06:44:37.853Z,80
2017-05-18T06:45:18.365Z,80
2017-05-18T06:45:58.881Z,80
2017-05-18T06:48:17.289Z,75
2017-05-18T06:48:57.820Z,75
2017-05-18T06:49:38.314Z,80
2017-05-18T06:50:18.828Z,80
2017-05-18T06:50:59.345Z,80
2017-05-18T06:51:39.861Z,80
2017-05-18T06:52:20.461Z,80
2017-05-18T06:53:01.035Z,80
2017-05-18T06:53:41.580Z,80
2017-05-18T06:54:22.103Z,80
2017-05-18T06:55:02.626Z,80
2017-05-18T06:55:43.149Z,80
2017-05-18T06:56:23.670Z,80
2017-05-18T06:57:04.229Z,80
2017-05-18T06:57:44.760Z,85
2017-05-18T06:58:25.263Z,85
2017-05-18T06:59:05.779Z,80
2017-05-18T06:59:46.312Z,85
2017-05-18T07:00:26.875Z,85
2017-05-18T07:01:07.349Z,85
2017-05-18T07:01:47.887Z,85
2017-05-18T07:02:28.405Z,85
2017-05-18T07:03:08.958Z,85
2017-05-18T07:03:49.448Z,85
2017-05-18T07:04:30.072Z,85
2017-05-18T07:05:10.542Z,90
2017-05-18T07:05:51.055Z,95
2017-05-18T07:06:31.596Z,95
2017-05-18T07:07:12.124Z,95
2017-05-18T07:07:52.629Z,95
2017-05-18T07:08:33.153Z,90
2017-05-18T07:09:13.677Z,95
2017-05-18T07:09:54.180Z,90
2017-05-18T07:10:34.752Z,95
2017-05-18T07:11:15.195Z,95
2017-05-18T07:11:55.652Z,95
2017-05-18T07:12:36.188Z,95
2017-05-18T07:13:16.657Z,95
2017-05-18T07:13:57.192Z,95
2017-05-18T07:14:37.646Z,95
2017-05-18T07:15:18.143Z,110
2017-05-18T07:15:58.678Z,100
2017-05-18T07:16:39.208Z,95
2017-05-18T07:17:19.657Z,100
2017-05-18T07:18:00.159Z,95
2017-05-18T07:18:40.685Z,95
2017-05-18T07:19:21.152Z,90
2017-05-18T07:20:01.615Z,85
2017-05-18T07:20:42.174Z,85
2017-05-18T07:21:22.621Z,85
2017-05-18T07:22:03.146Z,90
2017-05-18T07:22:43.582Z,80
2017-05-18T07:23:24.084Z,80
2017-05-18T07:24:04.584Z,80
2017-05-18T07:24:45.115Z,80
2017-05-18T07:25:25.696Z,80
2017-05-18T07:26:06.147Z,75
2017-05-18T07:26:46.634Z,75
2017-05-18T07:27:27.105Z,80
2017-05-18T07:28:07.639Z,80
2017-05-18T07:28:48.056Z,80
2017-05-18T07:29:28.555Z,85
2017-05-18T07:30:09.159Z,80
2017-05-18T07:30:49.653Z,80
2017-05-18T07:31:30.151Z,80
2017-05-18T07:32:10.596Z,80
2017-05-18T07:32:51.092Z,75
2017-05-18T07:33:31.559Z,70
2017-05-18T07:34:12.087Z,70
2017-05-18T07:34:52.611Z,65
2017-05-18T07:35:33.144Z,60
2017-05-18T07:36:13.633Z,55
2017-05-18T07:36:54.146Z,55
2017-05-18T07:37:34.628Z,50
2017-05-18T07:38:15.156Z,50
2017-05-18T07:38:55.674Z,45
2017-05-18T07:39:36.208Z,45
2017-05-18T07:40:16.727Z,45
2017-05-18T07:40:57.245Z,45
2017-05-18T07:41:37.772Z,45
2017-05-18T07:42:18.335Z,45
2017-05-18T07:42:58.853Z,45
2017-05-18T07:43:39.367Z,45
2017-05-18T07:44:19.886Z,45
2017-05-18T07:45:00.406Z,45
2017-05-18T07:45:40.969Z,45
2017-05-18T07:46:21.477Z,45
2017-05-18T07:47:02.005Z,45
2017-05-18T07:47:42.525Z,45
2017-05-18T07:48:23.044Z,45
2017-05-18T07:49:03.567Z,45
2017-05-18T07:49:44.083Z,45
2017-05-18T07:50:24.605Z,45
2017-05-18T07:51:05.121Z,45
2017-05-18T07:51:45.633Z,45
2017-05-18T07:52:26.157Z,45
2017-05-18T07:53:06.688Z,45
2017-05-18T07:53:47.217Z,45
2017-05-18T07:54:27.735Z,45
2017-05-18T07:55:08.329Z,45
2017-05-18T07:55:48.770Z,45
2017-05-18T07:56:29.299Z,40
2017-05-18T07:57:09.817Z,40
2017-05-18T07:57:50.340Z,40
2017-05-18T07:58:30.858Z,40
2017-05-18T07:59:11.389Z,40
2017-05-18T07:59:51.929Z,40
2017-05-18T08:00:32.455Z,40
2017-05-18T08:01:13.041Z,40
2017-05-18T08:01:53.558Z,40
2017-05-18T08:02:34.083Z,40
2017-05-18T08:03:14.599Z,40
2017-05-18T08:03:55.143Z,40
2017-05-18T08:04:35.666Z,40
2017-05-18T08:05:16.167Z,40
2017-05-18T08:05:56.679Z,40
2017-05-18T08:06:37.250Z,40
2017-05-18T08:07:17.784Z,40
2017-05-18T08:07:58.312Z,40
2017-05-18T08:08:38.849Z,40
2017-05-18T08:09:19.339Z,35
2017-05-18T08:09:59.866Z,35
2017-05-18T08:10:40.383Z,35
2017-05-18T08:11:20.903Z,35
2017-05-18T08:12:01.411Z,35
2017-05-18T08:12:41.936Z,30
2017-05-18T08:13:22.447Z,30
2017-05-18T08:14:02.980Z,30
2017-05-18T08:14:43.490Z,30
2017-05-18T08:15:24.007Z,30
2017-05-18T08:16:04.522Z,30
2017-05-18T08:16:45.041Z,35
2017-05-18T08:17:25.561Z,35
2017-05-18T08:18:06.069Z,35
2017-05-18T08:18:46.593Z,35
2017-05-18T08:19:27.113Z,35
2017-05-18T08:20:07.645Z,35
2017-05-18T08:20:48.173Z,35
2017-05-18T08:21:28.710Z,35
2017-05-18T08:22:09.201Z,35
2017-05-18T08:22:49.720Z,35
2017-05-18T08:23:30.248Z,35
2017-05-18T08:24:10.798Z,35
2017-05-18T08:24:51.328Z,35
2017-05-18T08:25:31.811Z,35
2017-05-18T08:26:12.339Z,40
2017-05-18T08:26:52.858Z,35
2017-05-18T08:27:33.384Z,35
2017-05-18T08:28:13.962Z,35
2017-05-18T08:28:54.444Z,40
2017-05-18T08:29:34.960Z,35
2017-05-18T08:30:15.481Z,35
2017-05-18T08:30:56.025Z,35
2017-05-18T08:31:36.530Z,35
2017-05-18T08:32:17.022Z,35
2017-05-18T08:32:57.546Z,35
2017-05-18T08:33:38.055Z,35
2017-05-18T08:34:18.584Z,35
2017-05-18T08:34:59.096Z,30
2017-05-18T08:35:39.579Z,30
2017-05-18T08:36:20.126Z,30
2017-05-18T08:37:00.633Z,30
2017-05-18T08:37:41.152Z,30
2017-05-18T08:38:21.695Z,30
2017-05-18T08:39:02.220Z,30
2017-05-18T08:39:42.766Z,30
2017-05-18T08:40:23.294Z,30
2017-05-18T08:41:03.819Z,30
2017-05-18T08:41:44.332Z,30
2017-05-18T08:42:24.864Z,30
2017-05-18T08:43:05.434Z,30
2017-05-18T08:43:45.911Z,25
2017-05-18T08:44:26.428Z,25
2017-05-18T08:45:06.944Z,25
2017-05-18T08:45:47.465Z,25
2017-05-18T08:46:27.985Z,25
2017-05-18T08:47:08.507Z,25
2017-05-18T08:47:49.027Z,25
2017-05-18T08:48:29.544Z,25
2017-05-18T08:49:10.071Z,25
2017-05-18T08:49:50.604Z,25
2017-05-18T08:50:31.132Z,25
2017-05-18T08:51:11.652Z,25
2017-05-18T08:51:52.186Z,25
2017-05-18T08:52:32.709Z,25
2017-05-18T08:53:13.235Z,25
2017-05-18T08:53:53.749Z,25
2017-05-18T08:54:34.267Z,25
2017-05-18T08:55:14.798Z,20
2017-05-18T08:55:55.314Z,20
2017-05-18T08:56:35.832Z,20
2017-05-18T08:57:16.368Z,20
2017-05-18T08:57:56.919Z,20
2017-05-18T08:58:37.438Z,20
2017-05-18T08:59:17.965Z,20
2017-05-18T08:59:58.517Z,20
2017-05-18T09:00:39.028Z,20
2017-05-18T09:01:19.547Z,20
2017-05-18T09:02:00.133Z,20
2017-05-18T09:02:40.644Z,20
2017-05-18T09:03:21.144Z,20
2017-05-18T09:04:01.663Z,20
2017-05-18T09:04:42.185Z,20
2017-05-18T09:05:22.698Z,20
2017-05-18T09:06:03.363Z,20
2017-05-18T09:06:43.736Z,25
2017-05-18T09:07:24.239Z,25
2017-05-18T09:08:04.759Z,25
2017-05-18T09:08:45.287Z,25
2017-05-18T09:09:25.788Z,25
2017-05-18T09:10:06.313Z,25
2017-05-18T09:10:46.842Z,25
2017-05-18T09:11:27.352Z,25
2017-05-18T09:12:07.840Z,25
2017-05-18T09:12:48.380Z,30
2017-05-18T09:13:28.886Z,30
2017-05-18T09:14:09.406Z,30
2017-05-18T09:14:49.939Z,30
2017-05-18T09:15:30.453Z,30
2017-05-18T09:16:10.968Z,30
2017-05-18T09:16:51.504Z,30
2017-05-18T09:17:32.021Z,30
2017-05-18T09:18:12.562Z,30
2017-05-18T09:18:53.088Z,30
2017-05-18T09:19:33.606Z,30
2017-05-18T09:20:14.133Z,30
2017-05-18T09:20:54.645Z,30
2017-05-18T09:21:36.096Z,30
2017-05-18T09:22:16.627Z,30
2017-05-18T09:22:57.135Z,30
2017-05-18T09:23:37.664Z,30
2017-05-18T09:24:18.222Z,30
2017-05-18T09:24:58.719Z,25
2017-05-18T09:25:39.239Z,25
2017-05-18T09:26:20.413Z,25
2017-05-18T09:27:00.935Z,30
2017-05-18T09:27:41.495Z,30
2017-05-18T09:28:22.027Z,30
2017-05-18T09:29:02.560Z,30
2017-05-18T09:29:43.074Z,30
2017-05-18T09:30:23.605Z,30
2017-05-18T09:31:04.146Z,30
2017-05-18T09:31:44.667Z,30
2017-05-18T09:32:25.179Z,30
2017-05-18T09:33:05.703Z,30
2017-05-18T09:33:46.248Z,30
2017-05-18T09:34:26.741Z,30
2017-05-18T09:35:07.301Z,30
2017-05-18T09:35:47.827Z,30
2017-05-18T09:36:28.341Z,30
2017-05-18T09:37:08.870Z,30
2017-05-18T09:37:49.397Z,30
2017-05-18T09:38:29.926Z,30
2017-05-18T09:39:10.469Z,30
2017-05-18T09:39:50.993Z,35
2017-05-18T09:40:31.523Z,35
2017-05-18T09:41:12.054Z,35
2017-05-18T09:41:52.559Z,35
2017-05-18T09:42:33.113Z,35
2017-05-18T09:43:13.652Z,35
2017-05-18T09:43:54.173Z,35
2017-05-18T09:44:34.726Z,35
2017-05-18T09:45:15.249Z,35
2017-05-18T09:45:55.775Z,35
2017-05-18T09:46:36.286Z,35
2017-05-18T09:47:16.825Z,35
2017-05-18T09:47:57.405Z,35
2017-05-18T09:48:37.883Z,35
2017-05-18T09:49:18.408Z,35
2017-05-18T09:49:58.927Z,35
2017-05-18T09:50:39.455Z,35
2017-05-18T09:51:19.977Z,35
2017-05-18T09:52:00.504Z,35
2017-05-18T09:52:41.040Z,35
2017-05-18T09:53:21.563Z,35